createdAt,value
2018-02-22T00:01:23.882Z,81.97
2018-02-22T00:03:50.286Z,82.39
2018-02-22T00:06:16.677Z,82.90
2018-02-22T00:08:43.105Z,82.37
2018-02-22T00:11:09.489Z,81.88
2018-02-22T00:13:35.854Z,81.76
2018-02-22T00:16:02.233Z,81.62
2018-02-22T00:18:28.632Z,81.59
2018-02-22T00:20:54.997Z,81.79
2018-02-22T00:23:21.453Z,81.73
2018-02-22T00:25:47.891Z,82.17
2018-02-22T00:28:14.325Z,82.26
2018-02-22T00:30:40.722Z,81.84
2018-02-22T00:33:07.173Z,82.02
2018-02-22T00:35:33.643Z,82.03
2018-02-22T00:38:00.037Z,81.85
2018-02-22T00:40:26.486Z,82.23
2018-02-22T00:42:52.944Z,82.49
2018-02-22T00:45:19.324Z,82.24
2018-02-22T00:47:45.740Z,81.79
2018-02-22T00:50:12.157Z,81.82
2018-02-22T00:52:38.541Z,81.83
2018-02-22T00:55:04.949Z,82.61
2018-02-22T00:57:31.362Z,82.52
2018-02-22T00:59:57.726Z,82.38
2018-02-22T01:02:24.090Z,82.03
2018-02-22T01:04:50.577Z,82.07
2018-02-22T01:07:17.050Z,81.96
2018-02-22T01:09:43.453Z,82.01
2018-02-22T01:12:09.942Z,82.82
2018-02-22T01:14:36.309Z,82.86
2018-02-22T01:17:02.720Z,82.90
2018-02-22T01:19:29.139Z,82.70
2018-02-22T01:21:55.532Z,82.34
2018-02-22T01:24:21.927Z,82.53
2018-02-22T01:26:48.446Z,82.55
2018-02-22T01:29:14.829Z,82.18
2018-02-22T01:31:41.198Z,81.82
2018-02-22T01:34:07.638Z,81.56
2018-02-22T01:36:34.088Z,81.94
2018-02-22T01:39:00.569Z,82.06
2018-02-22T01:41:26.941Z,82.77
2018-02-22T01:43:53.304Z,82.71
2018-02-22T01:46:19.748Z,82.65
2018-02-22T01:48:46.189Z,82.54
2018-02-22T01:51:12.585Z,82.32
2018-02-22T01:53:38.950Z,82.17
2018-02-22T01:56:05.485Z,81.82
2018-02-22T01:58:31.918Z,81.93
2018-02-22T02:00:58.297Z,82.54
2018-02-22T02:03:24.806Z,82.45
2018-02-22T02:05:51.243Z,82.28
2018-02-22T02:08:17.633Z,82.16
2018-02-22T02:10:44.115Z,82.17
2018-02-22T02:13:10.518Z,82.71
2018-02-22T02:15:36.937Z,82.73
2018-02-22T02:18:03.389Z,82.66
2018-02-22T02:20:29.778Z,82.43
2018-02-22T02:22:56.315Z,82.60
2018-02-22T02:25:22.781Z,82.39
2018-02-22T02:27:55.146Z,82.17
2018-02-22T02:30:21.565Z,82.28
2018-02-22T02:32:48.068Z,82.07
2018-02-22T02:35:14.458Z,82.20
2018-02-22T02:37:40.858Z,82.01
2018-02-22T02:40:07.360Z,81.99
2018-02-22T02:42:33.753Z,82.07
2018-02-22T02:45:00.154Z,82.20
2018-02-22T02:47:26.609Z,82.50
2018-02-22T02:49:53.035Z,82.57
2018-02-22T02:52:19.601Z,82.15
2018-02-22T02:54:46.042Z,82.57
2018-02-22T02:57:12.475Z,82.60
2018-02-22T02:59:38.903Z,82.59
2018-02-22T03:02:05.332Z,82.44
2018-02-22T03:04:31.862Z,82.65
2018-02-22T03:06:58.302Z,82.49
2018-02-22T03:09:24.746Z,82.25
2018-02-22T03:11:51.117Z,82.16
2018-02-22T03:14:17.488Z,82.50
2018-02-22T03:16:43.915Z,82.66
2018-02-22T03:19:10.261Z,83.46
2018-02-22T03:21:36.610Z,83.50
2018-02-22T03:24:03.077Z,83.07
2018-02-22T03:26:29.457Z,82.92
2018-02-22T03:28:55.829Z,83.17
2018-02-22T03:31:22.278Z,82.65
2018-02-22T03:33:48.677Z,82.74
2018-02-22T03:36:15.082Z,83.47
2018-02-22T03:38:41.522Z,83.18
2018-02-22T03:41:07.918Z,82.94
2018-02-22T03:43:34.310Z,82.88
2018-02-22T03:46:00.904Z,82.60
2018-02-22T03:48:27.262Z,82.46
2018-02-22T03:50:53.689Z,82.23
2018-02-22T03:53:20.183Z,82.29
2018-02-22T03:55:46.671Z,82.12
2018-02-22T03:58:13.165Z,82.57
2018-02-22T04:00:39.648Z,82.47
2018-02-22T04:03:06.207Z,82.39
2018-02-22T04:05:32.581Z,82.14
2018-02-22T04:07:59.029Z,82.17
2018-02-22T04:10:25.436Z,82.29
2018-02-22T04:12:51.854Z,82.14
2018-02-22T04:15:18.321Z,82.05
2018-02-22T04:17:44.701Z,82.22
2018-02-22T04:20:11.121Z,81.95
2018-02-22T04:22:37.650Z,82.03
2018-02-22T04:25:03.993Z,81.94
2018-02-22T04:27:30.381Z,82.04
2018-02-22T04:29:56.848Z,81.91
2018-02-22T04:32:23.236Z,81.43
2018-02-22T04:34:49.672Z,81.48
2018-02-22T04:37:16.088Z,81.55
2018-02-22T04:39:42.535Z,81.42
2018-02-22T04:42:08.956Z,81.66
2018-02-22T04:44:35.309Z,81.76
2018-02-22T04:47:01.773Z,82.07
2018-02-22T04:49:28.139Z,82.46
2018-02-22T04:51:54.643Z,82.51
2018-02-22T04:54:21.102Z,82.47
2018-02-22T04:56:47.533Z,82.11
2018-02-22T04:59:13.935Z,82.24
2018-02-22T05:01:40.348Z,82.09
2018-02-22T05:04:06.733Z,81.70
2018-02-22T05:06:33.223Z,81.83
2018-02-22T05:08:59.641Z,82.14
2018-02-22T05:11:26.925Z,82.18
2018-02-22T05:13:53.281Z,82.42
2018-02-22T05:16:19.754Z,82.10
2018-02-22T05:18:46.150Z,81.76
2018-02-22T05:21:12.526Z,81.62
2018-02-22T05:23:38.964Z,81.84
2018-02-22T05:26:05.350Z,81.84
2018-02-22T05:28:31.733Z,81.70
2018-02-22T05:30:58.198Z,81.74
2018-02-22T05:33:24.608Z,81.61
2018-02-22T05:35:50.979Z,81.69
2018-02-22T05:38:17.401Z,81.70
2018-02-22T05:40:43.922Z,81.21
2018-02-22T05:43:10.310Z,81.33
2018-02-22T05:45:37.182Z,81.25
2018-02-22T05:48:03.562Z,82.03
2018-02-22T05:50:34.786Z,82.30
2018-02-22T05:53:01.381Z,82.44
2018-02-22T05:55:27.802Z,82.31
2018-02-22T05:57:54.305Z,82.45
2018-02-22T06:00:20.798Z,82.08
2018-02-22T06:02:47.192Z,81.88
2018-02-22T06:05:13.601Z,81.89
2018-02-22T06:07:40.082Z,81.87
2018-02-22T06:10:06.447Z,81.96
2018-02-22T06:12:32.939Z,82.15
2018-02-22T06:14:59.368Z,82.06
2018-02-22T06:17:25.724Z,81.82
2018-02-22T06:19:52.122Z,81.86
2018-02-22T06:22:18.541Z,82.02
2018-02-22T06:24:45.001Z,81.85
2018-02-22T06:27:11.356Z,81.66
2018-02-22T06:29:40.725Z,81.70
2018-02-22T06:32:07.156Z,81.56
2018-02-22T06:34:33.517Z,81.75
2018-02-22T06:36:59.941Z,81.80
2018-02-22T06:39:27.296Z,81.66
2018-02-22T06:41:56.409Z,81.73
2018-02-22T06:44:23.855Z,81.72
2018-02-22T06:46:50.385Z,81.58
2018-02-22T06:49:16.793Z,81.72
2018-02-22T06:51:43.201Z,81.46
2018-02-22T06:54:09.561Z,82.11
2018-02-22T06:56:35.944Z,81.76
2018-02-22T06:59:02.510Z,82.21
2018-02-22T07:01:28.945Z,82.29
2018-02-22T07:03:55.409Z,82.47
2018-02-22T07:06:21.869Z,82.89
2018-02-22T07:08:48.241Z,82.88
2018-02-22T07:11:14.605Z,83.27
2018-02-22T07:13:41.066Z,83.70
2018-02-22T07:16:07.518Z,83.49
2018-02-22T07:18:33.921Z,83.16
2018-02-22T07:21:00.347Z,82.93
2018-02-22T07:23:26.863Z,82.65
2018-02-22T07:25:53.229Z,82.46
2018-02-22T07:28:19.665Z,82.13
2018-02-22T07:30:46.200Z,82.08
2018-02-22T07:33:15.988Z,82.20
2018-02-22T07:35:42.387Z,82.43
2018-02-22T07:38:08.778Z,82.24
2018-02-22T07:40:35.142Z,82.00
2018-02-22T07:43:01.603Z,81.71
2018-02-22T07:45:28.083Z,82.29
2018-02-22T07:47:54.433Z,82.73
2018-02-22T07:50:20.846Z,82.82
2018-02-22T07:52:47.324Z,82.63
2018-02-22T07:55:13.720Z,83.09
2018-02-22T07:57:40.129Z,83.28
2018-02-22T08:00:06.649Z,82.84
2018-02-22T08:02:33.075Z,83.00
2018-02-22T08:05:00.381Z,82.72
2018-02-22T08:07:26.863Z,82.80
2018-02-22T08:09:53.326Z,82.83
2018-02-22T08:12:19.793Z,82.86
2018-02-22T08:14:46.238Z,83.75
2018-02-22T08:17:12.655Z,84.23
2018-02-22T08:19:39.128Z,84.06
2018-02-22T08:22:05.573Z,83.65
2018-02-22T08:24:31.979Z,84.06
2018-02-22T08:26:58.470Z,83.52
2018-02-22T08:29:24.986Z,83.19
2018-02-22T08:31:51.394Z,83.01
2018-02-22T08:34:17.890Z,82.88
2018-02-22T08:36:44.970Z,82.60
2018-02-22T08:39:11.396Z,82.21
2018-02-22T08:41:37.777Z,82.90
2018-02-22T08:44:04.241Z,83.32
2018-02-22T08:46:30.647Z,83.33
2018-02-22T08:48:57.128Z,83.59
2018-02-22T08:51:28.958Z,82.79
2018-02-22T08:54:11.315Z,83.02
2018-02-22T08:56:49.886Z,83.00
2018-02-22T08:59:20.257Z,82.97
2018-02-22T09:01:57.211Z,82.86
2018-02-22T09:04:29.378Z,82.68
2018-02-22T09:06:56.023Z,82.66
2018-02-22T09:09:22.394Z,82.85
2018-02-22T09:11:48.741Z,82.67
2018-02-22T09:14:15.266Z,82.53
2018-02-22T09:16:41.826Z,82.84
2018-02-22T09:19:08.209Z,82.89
2018-02-22T09:21:34.638Z,83.22
2018-02-22T09:24:01.096Z,83.44
2018-02-22T09:26:27.540Z,83.14
2018-02-22T09:28:53.974Z,82.86
2018-02-22T09:31:20.453Z,82.74
2018-02-22T09:33:46.844Z,82.27
2018-02-22T09:36:13.259Z,82.38
2018-02-22T09:38:39.782Z,82.50
2018-02-22T09:41:06.162Z,82.00
2018-02-22T09:43:32.581Z,82.22
2018-02-22T09:45:59.035Z,82.42
2018-02-22T09:48:25.609Z,82.25
2018-02-22T09:50:59.092Z,82.32
2018-02-22T09:53:25.477Z,82.57
2018-02-22T09:55:51.890Z,82.22
2018-02-22T09:58:18.329Z,81.73
2018-02-22T10:00:44.743Z,81.81
2018-02-22T10:03:11.114Z,82.98
2018-02-22T10:05:37.599Z,82.99
2018-02-22T10:08:04.090Z,83.32
2018-02-22T10:10:30.541Z,82.98
2018-02-22T10:12:57.092Z,82.96
2018-02-22T10:15:23.594Z,82.13
2018-02-22T10:17:50.022Z,82.64
2018-02-22T10:20:16.637Z,82.35
2018-02-22T10:22:43.054Z,82.03
2018-02-22T10:25:09.514Z,82.91
2018-02-22T10:27:36.102Z,82.37
2018-02-22T10:30:02.621Z,82.04
2018-02-22T10:32:29.025Z,82.23
2018-02-22T10:34:55.448Z,82.34
2018-02-22T10:37:21.964Z,82.22
2018-02-22T10:39:48.537Z,82.63
2018-02-22T10:42:14.961Z,82.58
2018-02-22T10:44:41.652Z,83.06
2018-02-22T10:47:08.420Z,82.65
2018-02-22T10:49:34.774Z,82.14
2018-02-22T10:52:01.152Z,82.14
2018-02-22T10:54:27.582Z,81.38
2018-02-22T10:56:53.974Z,81.37
2018-02-22T10:59:20.410Z,80.18
2018-02-22T11:01:52.878Z,80.48
2018-02-22T11:04:19.322Z,81.06
2018-02-22T11:06:45.742Z,80.78
2018-02-22T11:09:12.135Z,80.09
2018-02-22T11:11:38.579Z,80.87
2018-02-22T11:14:05.057Z,81.79
2018-02-22T11:16:31.474Z,81.61
2018-02-22T11:18:58.049Z,81.31
2018-02-22T11:21:24.495Z,81.23
2018-02-22T11:23:50.843Z,80.99
2018-02-22T11:26:17.322Z,81.01
2018-02-22T11:28:43.790Z,80.78
2018-02-22T11:31:10.193Z,80.71
2018-02-22T11:33:36.594Z,79.84
2018-02-22T11:36:03.070Z,80.67
2018-02-22T11:38:29.514Z,81.30
2018-02-22T11:40:55.876Z,80.39
2018-02-22T11:43:22.302Z,79.39
2018-02-22T11:45:48.702Z,80.41
2018-02-22T11:48:15.078Z,80.46
2018-02-22T11:50:41.618Z,80.86
2018-02-22T11:53:08.228Z,80.42
2018-02-22T11:55:34.638Z,79.79
2018-02-22T11:58:01.097Z,78.57
2018-02-22T12:00:27.597Z,80.02
2018-02-22T12:02:54.239Z,80.10
2018-02-22T12:05:20.763Z,80.42
2018-02-22T12:07:47.186Z,80.44
2018-02-22T12:10:13.618Z,80.06
2018-02-22T12:12:40.205Z,80.57
2018-02-22T12:15:06.726Z,79.96
2018-02-22T12:17:33.181Z,79.32
2018-02-22T12:19:59.574Z,78.86
2018-02-22T12:22:26.308Z,78.71
2018-02-22T12:24:52.645Z,79.34
2018-02-22T12:27:19.018Z,79.73
2018-02-22T12:29:45.421Z,79.22
2018-02-22T12:32:11.906Z,77.92
2018-02-22T12:34:38.373Z,78.92
2018-02-22T12:37:04.877Z,79.96
2018-02-22T12:39:31.281Z,80.06
2018-02-22T12:41:57.731Z,80.19
2018-02-22T12:44:24.209Z,79.38
2018-02-22T12:46:50.577Z,78.86
2018-02-22T12:49:17.009Z,79.55
2018-02-22T12:51:43.449Z,80.93
2018-02-22T12:54:09.862Z,79.81
2018-02-22T12:56:36.364Z,79.79
2018-02-22T12:59:02.842Z,79.26
2018-02-22T13:01:29.285Z,78.35
2018-02-22T13:03:55.713Z,79.60
2018-02-22T13:06:22.214Z,79.41
2018-02-22T13:08:48.586Z,78.19
2018-02-22T13:11:14.992Z,78.96
2018-02-22T13:13:41.449Z,77.43
2018-02-22T13:16:09.076Z,77.48
2018-02-22T13:18:35.475Z,78.30
2018-02-22T13:21:01.947Z,79.40
2018-02-22T13:23:45.405Z,79.00
2018-02-22T13:26:19.113Z,78.32
2018-02-22T13:28:45.606Z,77.63
2018-02-22T13:31:12.042Z,78.74
2018-02-22T13:33:50.849Z,78.84
2018-02-22T13:36:17.185Z,79.16
2018-02-22T13:38:57.084Z,79.90
2018-02-22T13:41:23.478Z,78.41
2018-02-22T13:44:02.059Z,77.35
2018-02-22T13:46:28.497Z,77.48
2018-02-22T13:49:07.225Z,78.34
2018-02-22T13:51:33.578Z,78.96
2018-02-22T13:54:00.023Z,78.76
2018-02-22T13:56:38.621Z,78.76
2018-02-22T13:59:04.982Z,79.73
2018-02-22T14:01:43.733Z,79.98
2018-02-22T14:04:10.106Z,79.12
2018-02-22T14:06:36.646Z,77.96
2018-02-22T14:09:03.308Z,77.70
2018-02-22T14:11:31.855Z,78.25
2018-02-22T14:13:58.921Z,79.53
2018-02-22T14:16:25.437Z,78.28
2018-02-22T14:18:51.833Z,78.42
2018-02-22T14:21:18.233Z,79.05
2018-02-22T14:23:44.737Z,79.51
2018-02-22T14:26:11.134Z,79.39
2018-02-22T14:28:37.688Z,79.23
2018-02-22T14:31:04.158Z,78.72
2018-02-22T14:33:30.491Z,78.70
2018-02-22T14:35:56.925Z,79.06
2018-02-22T14:38:23.422Z,79.04
2018-02-22T14:40:49.850Z,77.34
2018-02-22T14:43:16.282Z,76.87
2018-02-22T14:45:42.710Z,77.76
2018-02-22T14:48:09.208Z,78.11
2018-02-22T14:50:35.789Z,78.05
2018-02-22T14:53:02.202Z,77.54
2018-02-22T14:55:28.638Z,77.93
2018-02-22T14:57:55.102Z,78.61
2018-02-22T15:00:21.554Z,78.81
2018-02-22T15:02:48.077Z,79.13
2018-02-22T15:05:14.494Z,79.00
2018-02-22T15:07:41.049Z,77.87
2018-02-22T15:10:07.480Z,78.77
2018-02-22T15:12:33.982Z,77.32
2018-02-22T15:15:00.453Z,78.52
2018-02-22T15:17:26.877Z,78.59
2018-02-22T15:19:53.332Z,78.45
2018-02-22T15:22:20.378Z,77.67
2018-02-22T15:24:46.834Z,77.06
2018-02-22T15:27:13.350Z,77.79
2018-02-22T15:29:39.891Z,77.73
2018-02-22T15:32:06.310Z,76.81
2018-02-22T15:34:32.872Z,76.34
2018-02-22T15:36:59.294Z,76.61
2018-02-22T15:39:25.715Z,76.92
2018-02-22T15:41:52.309Z,76.60
2018-02-22T15:44:18.734Z,77.24
2018-02-22T15:46:45.272Z,77.96
2018-02-22T15:49:11.825Z,77.15
2018-02-22T15:51:38.341Z,77.15
2018-02-22T15:54:04.856Z,77.41
2018-02-22T15:56:31.335Z,77.94
2018-02-22T15:58:57.717Z,77.63
2018-02-22T16:01:24.121Z,78.21
2018-02-22T16:03:50.588Z,78.77
2018-02-22T16:06:17.007Z,77.93
2018-02-22T16:08:43.437Z,78.23
2018-02-22T16:11:09.933Z,78.45
2018-02-22T16:13:36.346Z,79.12
2018-02-22T16:16:02.761Z,78.93
2018-02-22T16:18:29.170Z,77.88
2018-02-22T16:20:55.692Z,78.71
2018-02-22T16:23:22.130Z,78.52
2018-02-22T16:25:48.778Z,78.35
2018-02-22T16:28:15.274Z,78.05
2018-02-22T16:30:41.742Z,78.24
2018-02-22T16:33:08.227Z,78.63
2018-02-22T16:35:34.686Z,78.76
2018-02-22T16:38:01.098Z,78.82
2018-02-22T16:40:27.655Z,79.18
2018-02-22T16:42:54.009Z,78.94
2018-02-22T16:45:20.409Z,79.26
2018-02-22T16:47:46.945Z,78.74
2018-02-22T16:50:13.469Z,78.41
2018-02-22T16:52:41.521Z,78.69
2018-02-22T16:55:08.076Z,78.50
2018-02-22T16:57:34.497Z,77.99
2018-02-22T17:00:00.935Z,77.87
2018-02-22T17:02:27.426Z,77.51
2018-02-22T17:04:54.044Z,78.58
2018-02-22T17:07:20.525Z,78.59
2018-02-22T17:09:46.945Z,78.15
2018-02-22T17:12:13.537Z,78.21
2018-02-22T17:14:39.917Z,79.09
2018-02-22T17:17:06.378Z,78.67
2018-02-22T17:19:32.805Z,78.85
2018-02-22T17:21:59.286Z,78.99
2018-02-22T17:24:25.755Z,79.23
2018-02-22T17:26:58.183Z,78.63
2018-02-22T17:29:30.864Z,78.46
2018-02-22T17:32:03.253Z,77.88
2018-02-22T17:34:29.741Z,78.86
2018-02-22T17:36:56.228Z,78.33
2018-02-22T17:39:26.450Z,77.89
2018-02-22T17:41:53.122Z,76.81
2018-02-22T17:44:19.573Z,76.82
2018-02-22T17:46:46.022Z,77.90
2018-02-22T17:49:12.481Z,77.55
2018-02-22T17:51:38.918Z,78.26
2018-02-22T17:54:05.382Z,78.12
2018-02-22T17:56:31.881Z,77.95
2018-02-22T17:58:58.376Z,78.17
2018-02-22T18:01:24.802Z,78.55
2018-02-22T18:03:51.269Z,78.75
2018-02-22T18:06:17.802Z,78.75
2018-02-22T18:08:44.205Z,78.34
2018-02-22T18:11:10.681Z,78.52
2018-02-22T18:13:37.185Z,79.14
2018-02-22T18:16:03.612Z,78.80
2018-02-22T18:18:30.094Z,78.69
2018-02-22T18:20:56.529Z,77.84
2018-02-22T18:23:22.925Z,77.75
2018-02-22T18:25:49.441Z,78.11
2018-02-22T18:28:15.958Z,78.70
2018-02-22T18:30:42.378Z,78.69
2018-02-22T18:33:08.845Z,78.18
2018-02-22T18:35:35.258Z,78.44
2018-02-22T18:38:01.870Z,78.75
2018-02-22T18:40:34.327Z,78.67
2018-02-22T18:43:00.830Z,77.81
2018-02-22T18:45:27.293Z,78.28
2018-02-22T18:47:53.658Z,78.18
2018-02-22T18:50:20.102Z,78.18
2018-02-22T18:52:46.533Z,77.75
2018-02-22T18:55:12.893Z,77.64
2018-02-22T18:57:39.302Z,77.37
2018-02-22T19:00:05.846Z,77.16
2018-02-22T19:02:32.253Z,77.57
2018-02-22T19:04:58.732Z,78.15
2018-02-22T19:07:25.180Z,78.21
2018-02-22T19:09:51.523Z,77.80
2018-02-22T19:12:18.047Z,78.57
2018-02-22T19:14:44.509Z,78.51
2018-02-22T19:17:10.918Z,78.69
2018-02-22T19:19:37.277Z,79.42
2018-02-22T19:22:03.760Z,79.47
2018-02-22T19:24:30.126Z,79.02
2018-02-22T19:26:56.625Z,78.40
2018-02-22T19:29:23.062Z,79.58
2018-02-22T19:31:49.443Z,78.95
2018-02-22T19:34:15.982Z,77.66
2018-02-22T19:36:42.357Z,78.34
2018-02-22T19:39:08.801Z,77.94
2018-02-22T19:41:35.210Z,77.20
2018-02-22T19:44:01.638Z,78.20
2018-02-22T19:46:28.012Z,79.16
2018-02-22T19:48:54.454Z,79.35
2018-02-22T19:51:20.869Z,78.31
2018-02-22T19:53:47.431Z,77.71
2018-02-22T19:56:13.873Z,78.05
2018-02-22T19:58:40.322Z,78.24
2018-02-22T20:01:06.787Z,78.57
2018-02-22T20:03:33.194Z,78.12
2018-02-22T20:05:59.580Z,78.46
2018-02-22T20:08:25.998Z,78.34
2018-02-22T20:10:52.525Z,78.61
2018-02-22T20:13:19.062Z,78.79
2018-02-22T20:15:45.577Z,77.99
2018-02-22T20:18:11.926Z,77.42
2018-02-22T20:20:38.471Z,77.42
2018-02-22T20:23:04.902Z,77.71
2018-02-22T20:25:31.314Z,77.00
2018-02-22T20:27:57.718Z,78.76
2018-02-22T20:30:24.186Z,78.09
2018-02-22T20:32:50.606Z,77.89
2018-02-22T20:35:17.022Z,77.45
2018-02-22T20:37:43.530Z,76.93
2018-02-22T20:40:09.877Z,77.28
2018-02-22T20:42:36.338Z,77.54
2018-02-22T20:45:02.853Z,78.61
2018-02-22T20:47:29.329Z,78.59
2018-02-22T20:49:55.824Z,79.43
2018-02-22T20:52:28.077Z,79.06
2018-02-22T20:54:56.413Z,78.76
2018-02-22T20:57:23.130Z,77.33
2018-02-22T20:59:49.634Z,77.57
2018-02-22T21:02:16.122Z,77.15
2018-02-22T21:04:42.558Z,78.39
2018-02-22T21:07:08.964Z,77.63
2018-02-22T21:09:35.365Z,78.39
2018-02-22T21:12:01.741Z,78.71
2018-02-22T21:14:28.186Z,78.38
2018-02-22T21:16:54.626Z,77.98
2018-02-22T21:19:21.018Z,78.37
2018-02-22T21:21:47.425Z,77.44
2018-02-22T21:24:13.838Z,77.02
2018-02-22T21:26:40.231Z,77.33
2018-02-22T21:29:06.668Z,77.83
2018-02-22T21:31:33.069Z,77.75
2018-02-22T21:33:59.510Z,78.97
2018-02-22T21:36:26.869Z,79.58
2018-02-22T21:38:53.256Z,79.80
2018-02-22T21:41:19.773Z,77.59
2018-02-22T21:43:46.173Z,77.38
2018-02-22T21:46:12.617Z,78.40
2018-02-22T21:48:39.015Z,78.84
2018-02-22T21:51:05.405Z,77.39
2018-02-22T21:53:31.801Z,77.36
2018-02-22T21:55:58.254Z,77.77
2018-02-22T21:58:24.654Z,78.75
2018-02-22T22:00:51.090Z,77.81
2018-02-22T22:03:17.502Z,78.00
2018-02-22T22:05:43.933Z,77.45
2018-02-22T22:08:10.393Z,79.54
2018-02-22T22:10:36.813Z,77.88
2018-02-22T22:13:03.221Z,77.41
2018-02-22T22:15:29.630Z,78.30
2018-02-22T22:17:55.998Z,77.15
2018-02-22T22:20:22.350Z,78.38
2018-02-22T22:22:48.744Z,79.25
2018-02-22T22:25:15.215Z,78.80
2018-02-22T22:27:41.595Z,79.29
2018-02-22T22:30:07.984Z,78.84
2018-02-22T22:32:34.503Z,79.64
2018-02-22T22:35:00.925Z,78.04
2018-02-22T22:37:27.303Z,76.63
2018-02-22T22:39:53.762Z,76.72
2018-02-22T22:42:20.159Z,78.12
2018-02-22T22:44:46.543Z,78.88
2018-02-22T22:47:12.898Z,79.11
2018-02-22T22:49:39.353Z,79.23
2018-02-22T22:52:05.790Z,80.06
2018-02-22T22:54:32.238Z,80.02
2018-02-22T22:56:58.713Z,77.82
2018-02-22T22:59:25.072Z,77.91
2018-02-22T23:01:51.434Z,79.78
2018-02-22T23:04:17.865Z,79.47
2018-02-22T23:06:44.287Z,79.22
2018-02-22T23:09:10.833Z,79.19
2018-02-22T23:11:37.356Z,78.81
2018-02-22T23:14:03.933Z,78.40
2018-02-22T23:16:30.310Z,78.36
2018-02-22T23:18:56.671Z,77.10
2018-02-22T23:21:23.150Z,77.73
2018-02-22T23:23:49.559Z,78.07
2018-02-22T23:26:16.002Z,77.31
2018-02-22T23:28:42.476Z,76.55
2018-02-22T23:31:08.895Z,78.13
2018-02-22T23:33:35.325Z,78.61
2018-02-22T23:36:01.734Z,80.18
2018-02-22T23:38:28.201Z,78.99
2018-02-22T23:54:13.301Z,78.80
2018-02-22T23:56:39.798Z,78.32
2018-02-22T23:59:06.297Z,78.71
